Time;durP1;ratioP1;P1;durP2;ratioP2;P2;SDS_P1;SDS_P2;PMS_P1;PMS_P2;Temp;Humidity;BMP_temperature;BMP_pressure;BME280_temperature;BME280_humidity;BME280_pressure;Samples;Min_cycle;Max_cycle;Signal;HPM_P1;HPM_P2
2022/10/05 00:00:42;;;;;;;25.80;15.57;;;;;;;6.99;100.00;100609.63;4978373;28;20319;-71
2022/10/05 00:03:10;;;;;;;19.87;13.63;;;;;;;6.98;100.00;100604.56;4984323;28;20207;-71
2022/10/05 00:05:36;;;;;;;17.50;14.10;;;;;;;7.05;100.00;100604.31;4991038;28;20198;-70
2022/10/05 00:08:21;;;;;;;18.63;14.47;;;;;;;6.92;100.00;100603.88;4988230;28;20182;-71
2022/10/05 00:10:47;;;;;;;22.87;14.13;;;;;;;7.08;100.00;100599.13;4985369;28;20229;-70
2022/10/05 00:13:14;;;;;;;17.67;14.50;;;;;;;6.99;100.00;100596.84;5003558;28;20201;-70
2022/10/05 00:15:41;;;;;;;19.03;14.10;;;;;;;7.00;100.00;100595.97;4990984;28;20215;-70
2022/10/05 00:18:14;;;;;;;19.13;14.83;;;;;;;6.93;100.00;100597.03;4991836;28;20240;-70
2022/10/05 00:20:40;;;;;;;20.70;14.57;;;;;;;7.03;100.00;100590.78;4988860;28;20241;-70
2022/10/05 00:23:12;;;;;;;22.33;14.10;;;;;;;7.11;100.00;100585.41;4991114;28;20200;-69
2022/10/05 00:25:37;;;;;;;20.67;14.27;;;;;;;7.13;100.00;100587.91;4991547;28;20210;-70
2022/10/05 00:28:32;;;;;;;21.00;13.97;;;;;;;7.05;100.00;100588.97;4992056;28;20643;-70
2022/10/05 00:30:59;;;;;;;16.23;13.67;;;;;;;7.17;100.00;100586.91;4981892;28;20222;-70
2022/10/05 00:33:26;;;;;;;21.57;14.50;;;;;;;6.99;100.00;100586.63;4990177;28;20187;-70
2022/10/05 00:35:51;;;;;;;16.17;13.93;;;;;;;6.89;100.00;100580.13;4992044;28;20210;-70
2022/10/05 00:38:16;;;;;;;17.60;14.97;;;;;;;6.93;100.00;100576.59;4992117;28;20198;-70
2022/10/05 00:40:53;;;;;;;15.53;13.83;;;;;;;6.95;100.00;100582.50;4984841;28;20254;-70
2022/10/05 00:43:43;;;;;;;16.93;14.80;;;;;;;6.97;100.00;100569.66;4991645;28;20198;-70
2022/10/05 00:46:41;;;;;;;22.17;16.90;;;;;;;6.89;100.00;100563.06;5007136;28;20986;-70
2022/10/05 00:49:35;;;;;;;19.67;16.87;;;;;;;6.87;100.00;100566.53;4946846;28;20673;-70
2022/10/05 00:52:20;;;;;;;22.23;15.57;;;;;;;7.01;100.00;100578.88;4983885;28;20312;-70
2022/10/05 00:54:53;;;;;;;21.57;15.63;;;;;;;7.02;100.00;100573.75;4992034;28;20210;-70
2022/10/05 00:57:28;;;;;;;19.03;15.37;;;;;;;7.01;100.00;100571.22;4989963;28;20276;-71
2022/10/05 01:00:05;;;;;;;17.47;14.73;;;;;;;7.08;100.00;100571.00;4991983;28;20174;-70
2022/10/05 01:02:41;;;;;;;17.77;15.30;;;;;;;7.05;100.00;100570.25;4982205;28;20231;-70
2022/10/05 01:05:17;;;;;;;16.70;15.00;;;;;;;6.97;100.00;100569.66;4992980;28;20190;-70
2022/10/05 01:08:00;;;;;;;20.20;15.00;;;;;;;6.98;100.00;100569.59;4984482;28;20191;-70
2022/10/05 01:10:26;;;;;;;18.80;15.33;;;;;;;7.02;100.00;100572.88;4977049;28;20317;-71
2022/10/05 01:13:13;;;;;;;17.63;15.23;;;;;;;6.89;100.00;100567.34;4989619;28;20281;-71
2022/10/05 01:15:54;;;;;;;20.07;14.13;;;;;;;6.91;100.00;100568.13;4991161;28;20217;-71
2022/10/05 01:18:31;;;;;;;17.13;15.13;;;;;;;6.89;100.00;100570.72;4991256;28;20272;-71
2022/10/05 01:21:23;;;;;;;18.87;14.90;;;;;;;6.76;100.00;100574.53;4982272;28;20654;-70
2022/10/05 01:24:30;;;;;;;16.97;14.60;;;;;;;6.77;100.00;100573.66;4983042;28;20213;-70
2022/10/05 01:27:32;;;;;;;16.90;13.37;;;;;;;6.68;100.00;100568.84;4989572;28;20202;-70
2022/10/05 01:30:17;;;;;;;15.33;12.97;;;;;;;6.62;100.00;100573.28;4990063;28;20192;-70
2022/10/05 01:33:10;;;;;;;17.93;12.73;;;;;;;6.65;100.00;100581.72;4981137;28;20582;-70
2022/10/05 01:35:51;;;;;;;16.30;13.50;;;;;;;6.62;100.00;100582.66;4984182;28;20330;-70
2022/10/05 01:38:31;;;;;;;18.73;14.10;;;;;;;6.54;100.00;100576.94;4975683;28;20673;-70
2022/10/05 01:41:13;;;;;;;19.70;14.47;;;;;;;6.37;100.00;100572.31;4974882;28;20251;-70
2022/10/05 01:43:49;;;;;;;24.40;15.03;;;;;;;6.20;100.00;100568.56;4983699;28;20197;-70
2022/10/05 01:46:34;;;;;;;21.70;16.13;;;;;;;6.09;100.00;100563.75;4991113;28;20182;-70
2022/10/05 01:49:10;;;;;;;17.93;14.63;;;;;;;5.95;100.00;100559.00;4981478;28;20181;-70
2022/10/05 01:52:14;;;;;;;20.43;15.20;;;;;;;5.97;100.00;100546.19;4974773;28;20237;-70
2022/10/05 01:54:54;;;;;;;17.57;14.27;;;;;;;6.10;100.00;100546.69;4990898;28;20254;-70
2022/10/05 01:57:38;;;;;;;19.13;15.43;;;;;;;6.15;100.00;100544.84;4980942;28;20714;-70
2022/10/05 02:00:10;;;;;;;17.17;14.87;;;;;;;6.22;100.00;100536.13;4980447;28;20203;-70
2022/10/05 02:02:45;;;;;;;22.23;15.13;;;;;;;6.18;100.00;100528.59;4986153;28;20194;-70
2022/10/05 02:05:23;;;;;;;21.60;15.97;;;;;;;5.97;100.00;100526.56;4993214;28;20193;-70
2022/10/05 02:07:59;;;;;;;21.50;15.43;;;;;;;5.98;100.00;100519.78;4992374;28;20301;-71
2022/10/05 02:10:36;;;;;;;23.70;16.90;;;;;;;6.07;100.00;100522.09;4980735;28;20306;-68
2022/10/05 02:13:11;;;;;;;20.67;16.50;;;;;;;6.07;100.00;100529.75;4976467;28;20265;-69
2022/10/05 02:15:45;;;;;;;22.17;15.57;;;;;;;6.04;100.00;100524.75;4990194;28;20681;-69
2022/10/05 02:18:17;;;;;;;18.87;15.90;;;;;;;6.05;100.00;100528.13;4989199;28;20287;-68
2022/10/05 02:20:44;;;;;;;25.67;16.30;;;;;;;6.19;100.00;100531.13;4981735;28;20232;-68
2022/10/05 02:23:19;;;;;;;24.03;15.60;;;;;;;5.94;100.00;100524.13;4991180;28;20201;-69
2022/10/05 02:25:48;;;;;;;27.63;15.97;;;;;;;5.87;100.00;100516.69;4991206;28;20502;-68
2022/10/05 02:28:45;;;;;;;20.23;16.53;;;;;;;5.79;100.00;100509.22;4992213;28;20328;-68
2022/10/05 02:31:22;;;;;;;20.70;16.23;;;;;;;5.95;100.00;100507.94;4924486;28;20257;-69
2022/10/05 02:33:48;;;;;;;21.03;15.83;;;;;;;6.04;100.00;100511.13;4947235;29;20222;-68
2022/10/05 02:36:18;;;;;;;21.03;15.70;;;;;;;6.09;100.00;100502.44;4950043;29;20221;-68
2022/10/05 02:39:04;;;;;;;19.60;15.03;;;;;;;6.00;100.00;100492.50;4933681;29;20714;-68
2022/10/05 02:41:36;;;;;;;20.07;16.67;;;;;;;6.04;100.00;100496.66;4906593;29;20241;-68
2022/10/05 02:44:09;;;;;;;20.03;16.00;;;;;;;6.00;100.00;100489.09;4946143;29;20204;-68
2022/10/05 02:46:45;;;;;;;17.53;14.57;;;;;;;6.00;100.00;100496.78;4950049;29;20589;-69
2022/10/05 02:49:22;;;;;;;17.07;14.23;;;;;;;6.00;100.00;100494.22;4928707;29;20196;-69
2022/10/05 02:52:19;;;;;;;16.73;14.83;;;;;;;6.00;100.00;100500.16;4931437;28;20232;-69
2022/10/05 02:55:23;;;;;;;20.37;14.87;;;;;;;6.00;100.00;100497.59;4919673;29;20223;-69
2022/10/05 02:58:26;;;;;;;20.80;15.43;;;;;;;6.05;100.00;100508.50;4950440;28;20263;-70
2022/10/05 03:01:11;;;;;;;17.40;13.33;;;;;;;6.13;100.00;100513.41;4918195;28;20233;-70
2022/10/05 03:03:43;;;;;;;19.50;14.00;;;;;;;6.09;100.00;100507.56;4952905;28;20199;-69
2022/10/05 03:06:24;;;;;;;17.43;14.07;;;;;;;6.09;100.00;100510.09;4951107;28;20666;-70
2022/10/05 03:09:00;;;;;;;18.07;15.30;;;;;;;6.06;100.00;100510.19;4963367;28;20676;-70
2022/10/05 03:11:50;;;;;;;79.67;16.77;;;;;;;5.82;100.00;100507.44;4935832;28;20231;-70
2022/10/05 03:14:29;;;;;;;63.13;16.50;;;;;;;5.84;100.00;100515.03;4966586;28;20288;-69
2022/10/05 03:16:54;;;;;;;57.57;15.93;;;;;;;5.95;100.00;100518.16;4945429;28;20245;-70
2022/10/05 03:19:31;;;;;;;21.23;15.30;;;;;;;5.92;100.00;100519.94;4956157;28;20189;-70
2022/10/05 03:21:56;;;;;;;58.10;15.50;;;;;;;6.01;100.00;100524.00;4946994;28;20235;-70
2022/10/05 03:24:30;;;;;;;37.27;17.17;;;;;;;5.79;100.00;100522.00;4956321;28;20614;-70
2022/10/05 03:27:28;;;;;;;27.93;15.97;;;;;;;5.97;100.00;100525.75;4952157;28;20281;-70
2022/10/05 03:30:03;;;;;;;27.37;16.33;;;;;;;6.24;100.00;100530.97;4948680;28;20248;-69
2022/10/05 03:33:07;;;;;;;42.20;17.10;;;;;;;6.39;100.00;100535.63;4926322;28;20221;-70
2022/10/05 03:35:57;;;;;;;23.43;17.00;;;;;;;6.49;100.00;100535.34;4948410;28;20703;-70
2022/10/05 03:38:28;;;;;;;27.67;15.57;;;;;;;6.57;100.00;100533.38;4951670;29;20211;-69
2022/10/05 03:41:02;;;;;;;28.73;15.70;;;;;;;6.29;100.00;100529.94;4922555;28;20231;-70
2022/10/05 03:43:36;;;;;;;26.67;15.03;;;;;;;6.39;100.00;100534.81;4935518;29;20178;-70
2022/10/05 03:46:19;;;;;;;22.23;13.90;;;;;;;6.33;100.00;100534.97;4931100;29;20554;-70
2022/10/05 03:48:52;;;;;;;22.23;14.07;;;;;;;6.35;100.00;100525.53;4933200;29;20235;-69
2022/10/05 03:51:28;;;;;;;51.73;14.43;;;;;;;6.29;100.00;100514.63;4937305;28;20541;-71
2022/10/05 03:54:02;;;;;;;40.50;14.47;;;;;;;6.25;100.00;100517.31;4934714;29;20242;-69
2022/10/05 03:56:54;;;;;;;58.63;14.20;;;;;;;6.33;100.00;100517.94;4952504;29;20199;-69
2022/10/05 03:59:28;;;;;;;48.63;14.37;;;;;;;6.59;100.00;100521.41;4935746;28;20203;-70
2022/10/05 04:01:57;;;;;;;50.10;14.50;;;;;;;6.81;100.00;100528.38;4929080;28;20227;-69
2022/10/05 04:04:44;;;;;;;33.23;15.07;;;;;;;6.95;100.00;100532.16;4931392;29;20200;-69
2022/10/05 04:07:35;;;;;;;127.60;16.60;;;;;;;6.92;100.00;100526.31;4932079;28;20183;-70
2022/10/05 04:10:04;;;;;;;60.97;16.47;;;;;;;7.04;100.00;100527.66;4934389;28;20215;-70
2022/10/05 04:12:37;;;;;;;37.97;14.93;;;;;;;6.98;100.00;100531.22;4962993;28;20326;-72
2022/10/05 04:15:13;;;;;;;96.87;18.57;;;;;;;7.01;100.00;100527.72;4992011;28;20352;-70
2022/10/05 04:17:42;;;;;;;72.43;16.57;;;;;;;6.85;100.00;100529.97;4992445;28;20194;-70
2022/10/05 04:20:37;;;;;;;45.30;14.93;;;;;;;6.63;100.00;100523.78;4982481;28;20191;-70
2022/10/05 04:23:08;;;;;;;20.07;14.03;;;;;;;6.66;100.00;100534.81;4972881;28;20289;-70
2022/10/05 04:25:55;;;;;;;18.17;14.33;;;;;;;6.57;100.00;100539.34;4991513;28;20257;-69
2022/10/05 04:28:55;;;;;;;17.93;14.93;;;;;;;6.42;100.00;100529.59;4992442;28;20540;-70
2022/10/05 04:32:02;;;;;;;22.47;15.50;;;;;;;6.49;100.00;100532.78;4986751;28;20733;-70
2022/10/05 04:34:46;;;;;;;20.10;15.90;;;;;;;6.78;100.00;100540.41;4954700;28;20218;-70
2022/10/05 04:37:23;;;;;;;19.43;15.83;;;;;;;6.95;100.00;100539.00;4991062;28;20689;-70
2022/10/05 04:40:14;;;;;;;23.30;16.17;;;;;;;6.90;100.00;100541.72;4981880;28;20193;-71
2022/10/05 04:43:07;;;;;;;19.80;15.87;;;;;;;7.09;100.00;100539.41;4945257;28;20341;-71
2022/10/05 04:45:53;;;;;;;21.13;16.30;;;;;;;7.25;100.00;100546.56;4972035;28;20640;-71
2022/10/05 04:48:34;;;;;;;17.63;14.93;;;;;;;7.25;100.00;100549.13;4972532;28;20254;-70
2022/10/05 04:51:28;;;;;;;20.10;15.37;;;;;;;7.37;100.00;100546.16;4978929;28;20268;-70
2022/10/05 04:54:03;;;;;;;18.47;15.40;;;;;;;7.57;100.00;100542.06;4992064;28;20303;-70
2022/10/05 04:56:37;;;;;;;21.73;16.13;;;;;;;7.77;100.00;100543.09;4979030;28;20183;-69
2022/10/05 04:59:23;;;;;;;19.50;16.90;;;;;;;7.53;100.00;100545.59;4989987;28;20237;-70
2022/10/05 05:02:09;;;;;;;17.83;14.60;;;;;;;7.79;100.00;100549.84;5001212;28;20226;-70
2022/10/05 05:04:48;;;;;;;17.60;15.27;;;;;;;7.75;100.00;100551.66;4987726;28;20240;-70
2022/10/05 05:07:34;;;;;;;20.63;15.90;;;;;;;7.97;100.00;100550.88;4991380;28;20191;-70
2022/10/05 05:10:11;;;;;;;18.17;15.10;;;;;;;8.24;100.00;100555.88;4991258;28;20210;-69
2022/10/05 05:13:07;;;;;;;18.23;14.73;;;;;;;8.26;100.00;100564.38;4981372;28;20269;-70
2022/10/05 05:15:45;;;;;;;17.33;14.83;;;;;;;8.40;100.00;100558.72;4980486;28;20616;-70
2022/10/05 05:18:56;;;;;;;17.67;14.73;;;;;;;8.49;100.00;100552.41;4991634;28;20645;-70
2022/10/05 05:21:45;;;;;;;17.90;13.77;;;;;;;8.60;100.00;100557.16;4980835;28;20363;-71
2022/10/05 05:24:33;;;;;;;22.80;16.17;;;;;;;8.66;100.00;100551.78;4989280;28;20236;-70
2022/10/05 05:27:01;;;;;;;23.93;16.60;;;;;;;8.70;100.00;100555.88;4991594;28;20313;-70
2022/10/05 05:29:59;;;;;;;23.83;18.33;;;;;;;8.50;100.00;100554.09;4991122;28;20183;-69
2022/10/05 05:32:54;;;;;;;22.83;18.17;;;;;;;8.47;100.00;100555.06;4977073;28;20233;-70
2022/10/05 05:35:29;;;;;;;18.03;15.57;;;;;;;8.41;100.00;100552.69;4987360;28;20731;-71
2022/10/05 05:38:35;;;;;;;26.40;17.13;;;;;;;8.34;100.00;100559.75;4988886;28;20201;-70
2022/10/05 05:41:16;;;;;;;19.00;15.03;;;;;;;8.50;100.00;100559.22;4976751;28;20544;-69
2022/10/05 05:44:03;;;;;;;23.63;16.87;;;;;;;8.64;100.00;100563.81;4988350;28;20191;-69
2022/10/05 05:46:39;;;;;;;22.93;16.30;;;;;;;8.71;100.00;100560.13;4977555;28;20254;-70
2022/10/05 05:49:14;;;;;;;24.93;16.37;;;;;;;8.64;100.00;100554.38;4978223;28;20183;-69
2022/10/05 05:51:46;;;;;;;21.40;15.67;;;;;;;8.78;100.00;100558.97;4957453;28;20219;-70
2022/10/05 05:54:15;;;;;;;26.87;16.60;;;;;;;8.99;100.00;100562.41;4985151;28;20701;-69
2022/10/05 05:57:06;;;;;;;29.80;18.60;;;;;;;9.12;100.00;100561.91;5004116;28;20191;-70
2022/10/05 05:59:46;;;;;;;31.93;18.73;;;;;;;9.19;100.00;100563.31;4982248;28;20187;-70
2022/10/05 06:02:17;;;;;;;38.93;18.40;;;;;;;9.39;100.00;100566.78;4975393;28;20252;-70
2022/10/05 06:04:48;;;;;;;34.90;18.40;;;;;;;9.52;100.00;100565.38;4987900;28;20187;-70
2022/10/05 06:07:18;;;;;;;25.13;17.50;;;;;;;9.38;100.00;100558.25;4988409;28;20183;-69
2022/10/05 06:09:48;;;;;;;29.73;17.23;;;;;;;9.13;100.00;100561.84;5002186;28;20211;-69
2022/10/05 06:12:20;;;;;;;27.93;16.73;;;;;;;9.30;100.00;100560.31;4980074;28;20325;-69
2022/10/05 06:14:54;;;;;;;37.90;18.77;;;;;;;9.03;100.00;100565.69;4971511;28;20246;-69
2022/10/05 06:17:23;;;;;;;28.73;18.17;;;;;;;9.34;100.00;100570.38;4985718;28;20200;-70
2022/10/05 06:19:53;;;;;;;37.37;19.27;;;;;;;9.39;100.00;100571.91;4983628;28;20245;-69
2022/10/05 06:22:24;;;;;;;36.50;19.07;;;;;;;9.54;100.00;100568.72;4978564;28;20255;-59
2022/10/05 06:25:11;;;;;;;32.73;19.83;;;;;;;9.55;100.00;100566.97;4990450;28;20925;-67
2022/10/05 06:27:55;;;;;;;38.53;21.23;;;;;;;9.69;100.00;100570.63;4989263;28;20187;-67
2022/10/05 06:30:21;;;;;;;34.87;19.97;;;;;;;9.80;100.00;100571.91;4983027;28;20250;-70
2022/10/05 06:33:06;;;;;;;38.53;20.40;;;;;;;9.90;100.00;100562.88;4993808;28;20623;-68
2022/10/05 06:36:00;;;;;;;31.10;19.17;;;;;;;9.96;100.00;100572.88;4993979;28;20211;-68
2022/10/05 06:38:43;;;;;;;36.23;21.27;;;;;;;9.93;100.00;100567.03;4989806;28;20187;-68
2022/10/05 06:41:32;;;;;;;37.73;22.37;;;;;;;9.87;100.00;100568.13;4984159;28;20374;-68
2022/10/05 06:44:18;;;;;;;38.23;20.50;;;;;;;10.08;100.00;100563.78;4998698;28;20218;-71
2022/10/05 06:47:15;;;;;;;37.50;22.87;;;;;;;10.37;100.00;100561.66;4991592;28;20242;-68
2022/10/05 06:49:49;;;;;;;35.83;21.93;;;;;;;10.47;100.00;100568.03;4992046;28;20187;-68
2022/10/05 06:52:37;;;;;;;36.30;21.37;;;;;;;10.46;100.00;100560.41;4958764;28;20231;-68
2022/10/05 06:55:33;;;;;;;40.90;22.30;;;;;;;10.55;100.00;100565.09;4990489;28;20207;-68
2022/10/05 06:58:14;;;;;;;37.00;22.97;;;;;;;10.80;100.00;100566.50;4983556;28;20184;-69
2022/10/05 07:00:51;;;;;;;30.50;21.90;;;;;;;10.96;100.00;100569.19;4975776;28;20230;-69
2022/10/05 07:03:38;;;;;;;30.73;18.77;;;;;;;10.95;100.00;100565.78;4989971;28;20198;-68
2022/10/05 07:06:32;;;;;;;22.83;17.93;;;;;;;11.01;100.00;100561.25;4993166;28;20262;-68
2022/10/05 07:09:26;;;;;;;23.03;17.03;;;;;;;11.43;100.00;100560.00;4992607;28;20643;-68
2022/10/05 07:12:10;;;;;;;23.27;17.60;;;;;;;11.76;100.00;100569.50;5013473;28;20235;-68
2022/10/05 07:14:51;;;;;;;27.73;19.07;;;;;;;11.61;100.00;100564.22;4990949;28;20210;-68
2022/10/05 07:17:34;;;;;;;27.07;18.50;;;;;;;11.89;100.00;100561.94;4963495;28;20226;-67
2022/10/05 07:20:19;;;;;;;25.23;17.43;;;;;;;12.03;100.00;100558.66;4990490;28;20188;-68
2022/10/05 07:22:48;;;;;;;21.50;16.67;;;;;;;12.16;100.00;100561.44;4980826;28;20223;-69
2022/10/05 07:25:20;;;;;;;24.37;17.37;;;;;;;12.15;100.00;100567.50;4982062;28;20184;-68
2022/10/05 07:27:54;;;;;;;25.20;16.47;;;;;;;12.55;100.00;100555.00;4978082;28;20215;-68
2022/10/05 07:30:20;;;;;;;21.23;16.63;;;;;;;12.79;100.00;100554.53;4952673;28;20190;-69
2022/10/05 07:32:58;;;;;;;26.77;17.37;;;;;;;12.81;100.00;100556.09;4964772;28;20176;-68
2022/10/05 07:38:47;;;;;;;20.87;16.87;;;;;;;13.19;100.00;100560.00;4983714;28;20214;-69
2022/10/05 07:41:24;;;;;;;25.23;19.20;;;;;;;13.37;100.00;100561.56;4987031;28;20244;-68
2022/10/05 07:43:55;;;;;;;27.97;18.10;;;;;;;13.18;100.00;100566.09;4988200;28;20195;-69
2022/10/05 07:46:46;;;;;;;25.73;18.57;;;;;;;13.13;100.00;100568.13;4981451;28;20191;-70
2022/10/05 07:49:30;;;;;;;22.30;18.10;;;;;;;12.90;100.00;100560.75;4989199;28;20184;-68
2022/10/05 07:52:09;;;;;;;23.20;18.20;;;;;;;12.89;100.00;100564.25;4980184;28;20231;-69
2022/10/05 07:54:41;;;;;;;23.40;18.10;;;;;;;13.02;100.00;100568.72;4987999;28;20233;-70
2022/10/05 07:57:18;;;;;;;20.90;16.63;;;;;;;13.21;100.00;100555.59;4987139;28;20553;-72
2022/10/05 07:59:55;;;;;;;21.43;17.57;;;;;;;13.75;100.00;100560.16;4993023;28;20720;-68
2022/10/05 08:02:48;;;;;;;13.33;11.90;;;;;;;14.27;100.00;100550.13;4952223;28;20315;-68
2022/10/05 08:05:36;;;;;;;13.83;11.50;;;;;;;14.68;100.00;100551.88;4986447;28;20184;-68
2022/10/05 08:08:30;;;;;;;15.47;13.87;;;;;;;14.93;100.00;100545.09;4993790;28;20210;-68
2022/10/05 08:11:06;;;;;;;14.20;12.53;;;;;;;14.94;100.00;100552.75;4989485;28;20238;-70
2022/10/05 08:13:50;;;;;;;11.97;8.23;;;;;;;13.87;100.00;100554.25;4998615;28;20222;-69
2022/10/05 08:16:16;;;;;;;8.13;7.33;;;;;;;13.85;100.00;100547.50;5005684;28;20710;-69
2022/10/05 08:19:07;;;;;;;8.03;7.33;;;;;;;14.07;100.00;100541.03;4992118;28;20179;-70
2022/10/05 08:21:50;;;;;;;7.33;6.73;;;;;;;14.53;100.00;100538.94;4971083;28;20723;-69
2022/10/05 08:24:39;;;;;;;8.37;7.57;;;;;;;15.31;100.00;100539.13;4985413;28;20179;-71
2022/10/05 08:27:32;;;;;;;7.53;6.93;;;;;;;15.47;100.00;100538.91;4983407;28;20186;-60
2022/10/05 08:30:09;;;;;;;7.30;6.70;;;;;;;15.79;100.00;100531.50;4985835;28;20218;-60
2022/10/05 08:32:44;;;;;;;8.00;7.27;;;;;;;16.05;100.00;100533.22;4982026;28;20238;-59
2022/10/05 08:35:21;;;;;;;8.20;7.60;;;;;;;16.02;100.00;100533.44;4990285;28;20193;-60
2022/10/05 08:37:48;;;;;;;7.70;7.00;;;;;;;16.07;100.00;100532.16;4992816;28;20187;-60
2022/10/05 08:40:55;;;;;;;8.77;7.50;;;;;;;16.29;100.00;100530.66;4982185;28;20299;-59
2022/10/05 08:43:54;;;;;;;7.77;7.17;;;;;;;16.14;100.00;100524.78;4991854;28;20577;-60
2022/10/05 08:46:40;;;;;;;7.07;6.47;;;;;;;16.26;100.00;100531.69;4989963;28;20217;-59
2022/10/05 08:49:33;;;;;;;7.30;6.70;;;;;;;16.16;100.00;100530.69;4993078;28;20179;-60
2022/10/05 08:52:21;;;;;;;8.27;7.47;;;;;;;16.65;100.00;100534.09;4972480;28;20680;-60
2022/10/05 08:55:05;;;;;;;7.27;6.57;;;;;;;17.24;100.00;100533.22;4986924;28;20210;-59
2022/10/05 08:57:49;;;;;;;7.30;6.67;;;;;;;17.68;100.00;100533.34;4988349;28;20233;-60
2022/10/05 09:00:22;;;;;;;8.43;6.77;;;;;;;17.31;100.00;100535.38;4991306;28;20182;-59
2022/10/05 09:03:24;;;;;;;8.50;7.67;;;;;;;17.62;100.00;100533.00;4985827;28;20188;-59
2022/10/05 09:05:57;;;;;;;7.40;6.80;;;;;;;18.31;100.00;100532.78;4983366;28;20524;-60
2022/10/05 09:08:34;;;;;;;7.03;6.43;;;;;;;18.19;100.00;100537.19;4988334;28;20190;-69
2022/10/05 09:11:03;;;;;;;6.93;6.33;;;;;;;18.78;99.73;100531.66;4990480;28;20786;-69
2022/10/05 09:13:54;;;;;;;6.20;5.70;;;;;;;18.08;100.00;100536.41;4999756;28;20583;-68
2022/10/05 09:16:28;;;;;;;6.80;6.20;;;;;;;17.73;100.00;100544.22;4979190;28;20182;-67
2022/10/05 09:19:29;;;;;;;7.30;6.60;;;;;;;17.40;100.00;100540.69;4979286;28;20270;-68
2022/10/05 09:21:57;;;;;;;8.27;6.60;;;;;;;17.55;100.00;100541.28;4977401;28;20724;-67
2022/10/05 09:24:44;;;;;;;7.30;6.60;;;;;;;16.94;100.00;100528.56;4979259;28;20196;-69
2022/10/05 09:27:14;;;;;;;6.33;5.83;;;;;;;17.43;100.00;100527.44;4990061;28;20647;-69
2022/10/05 09:30:11;;;;;;;6.80;6.17;;;;;;;19.43;98.98;100527.09;4992912;28;20195;-69
2022/10/05 09:33:22;;;;;;;6.10;5.60;;;;;;;21.49;77.94;100523.72;4965750;28;20223;-70
2022/10/05 09:35:47;;;;;;;6.03;5.53;;;;;;;22.63;69.74;100525.91;4969670;28;20253;-70
2022/10/05 09:38:44;;;;;;;5.83;5.43;;;;;;;23.82;60.54;100523.59;4990164;28;20202;-70
2022/10/05 09:41:25;;;;;;;6.65;4.82;;;;;;;25.29;53.58;100537.75;4989571;28;20237;-70
2022/10/05 09:44:19;;;;;;;5.03;4.63;;;;;;;24.01;56.99;100533.00;4989717;28;20196;-70
2022/10/05 09:47:02;;;;;;;5.97;4.95;;;;;;;22.07;70.51;100527.84;4992640;28;20231;-69
2022/10/05 09:50:02;;;;;;;4.90;4.38;;;;;;;20.90;80.35;100532.56;4992296;28;20218;-68
2022/10/05 09:52:48;;;;;;;5.47;4.97;;;;;;;20.64;82.41;100517.44;4981436;28;20211;-69
2022/10/05 09:55:47;;;;;;;8.80;5.47;;;;;;;20.23;85.70;100514.16;4989558;28;20219;-69
2022/10/05 09:58:16;;;;;;;5.40;4.90;;;;;;;19.56;97.15;100503.41;4989021;28;20254;-69
2022/10/05 10:00:54;;;;;;;6.63;5.00;;;;;;;19.26;97.86;100499.03;4977207;28;20310;-70
2022/10/05 10:03:44;;;;;;;5.93;4.97;;;;;;;20.78;88.10;100512.78;4994351;28;20269;-69
2022/10/05 10:06:31;;;;;;;5.30;4.80;;;;;;;20.39;88.23;100512.78;4994578;28;20191;-68
2022/10/05 10:09:33;;;;;;;4.93;4.53;;;;;;;20.10;90.75;100505.75;4996480;28;20240;-70
2022/10/05 10:12:25;;;;;;;5.57;4.83;;;;;;;20.13;93.99;100497.63;4960353;28;20230;-70
2022/10/05 10:15:20;;;;;;;5.40;4.13;;;;;;;20.78;90.16;100492.69;4993340;28;20293;-58
2022/10/05 10:18:02;;;;;;;3.73;3.43;;;;;;;20.75;89.74;100498.22;4987550;28;20231;-59
2022/10/05 10:20:46;;;;;;;6.77;3.23;;;;;;;20.91;86.31;100500.25;4984326;28;20269;-58
2022/10/05 10:23:27;;;;;;;4.57;3.47;;;;;;;19.86;92.51;100499.13;4986350;28;20238;-58
2022/10/05 10:25:52;;;;;;;3.33;3.03;;;;;;;19.94;95.36;100501.06;4987371;28;20191;-58
2022/10/05 10:28:46;;;;;;;3.03;2.83;;;;;;;19.54;98.74;100494.88;4988646;28;20194;-59
2022/10/05 10:31:27;;;;;;;4.00;3.70;;;;;;;19.51;95.65;100501.19;4980538;28;20250;-58
2022/10/05 10:34:15;;;;;;;3.53;3.10;;;;;;;18.97;97.42;100494.50;4998715;28;20203;-59
2022/10/05 10:37:15;;;;;;;3.60;3.10;;;;;;;18.57;100.00;100489.94;4986966;28;20230;-58
2022/10/05 10:40:06;;;;;;;5.33;3.70;;;;;;;18.94;100.00;100495.59;4992717;28;20219;-58
2022/10/05 10:42:53;;;;;;;3.43;3.13;;;;;;;19.39;99.99;100497.03;4969259;28;20235;-59
2022/10/05 10:45:36;;;;;;;5.90;3.40;;;;;;;18.96;100.00;100491.06;4988136;28;20627;-58
2022/10/05 10:48:03;;;;;;;3.97;3.00;;;;;;;18.77;100.00;100493.53;4989206;28;20296;-59
2022/10/05 10:50:59;;;;;;;4.53;2.70;;;;;;;19.22;99.25;100485.41;4988685;28;20244;-60
2022/10/05 10:53:46;;;;;;;2.67;2.47;;;;;;;19.94;97.60;100483.59;4991756;28;20210;-58
2022/10/05 10:56:40;;;;;;;3.30;3.00;;;;;;;19.30;96.35;100485.59;4992370;28;20738;-58
2022/10/05 10:59:43;;;;;;;4.20;2.70;;;;;;;19.49;95.00;100477.00;4978768;28;20533;-61
2022/10/05 11:02:36;;;;;;;2.97;2.70;;;;;;;20.26;91.90;100473.88;4989217;28;20221;-58
2022/10/05 11:05:24;;;;;;;3.30;2.80;;;;;;;20.26;88.37;100479.91;4994919;28;20190;-59
2022/10/05 11:07:57;;;;;;;4.97;2.90;;;;;;;20.02;89.88;100475.09;4989946;28;20202;-58
2022/10/05 11:10:28;;;;;;;2.93;2.70;;;;;;;19.61;92.86;100471.69;4981253;28;20234;-58
2022/10/05 11:13:25;;;;;;;2.77;2.57;;;;;;;19.29;96.50;100478.72;4993294;28;20198;-58
2022/10/05 11:16:12;;;;;;;4.47;2.83;;;;;;;19.25;97.46;100468.69;4985632;28;20246;-58
2022/10/05 11:18:52;;;;;;;2.70;2.50;;;;;;;19.35;97.55;100464.34;5001345;28;20191;-58
2022/10/05 11:21:29;;;;;;;2.90;2.70;;;;;;;19.15;98.52;100464.28;4984755;28;20690;-58
2022/10/05 11:24:16;;;;;;;3.80;2.53;;;;;;;19.28;97.84;100466.66;4989123;28;20194;-58
2022/10/05 11:26:41;;;;;;;3.27;2.33;;;;;;;19.12;98.81;100456.69;4987763;28;20213;-59
2022/10/05 11:29:23;;;;;;;3.97;2.87;;;;;;;18.79;100.00;100455.13;4994708;28;20185;-60
2022/10/05 11:31:53;;;;;;;4.20;2.50;;;;;;;18.82;100.00;100452.28;4953744;28;20283;-58
2022/10/05 11:34:56;;;;;;;4.10;3.20;;;;;;;19.10;100.00;100450.81;4990347;28;20212;-58
2022/10/05 11:37:48;;;;;;;3.00;2.47;;;;;;;18.65;100.00;100451.88;4991553;28;20559;-58
2022/10/05 11:40:49;;;;;;;2.90;2.60;;;;;;;18.79;100.00;100449.91;4979033;28;20687;-58
2022/10/05 11:43:50;;;;;;;3.37;2.33;;;;;;;18.94;100.00;100448.66;5007253;28;20191;-58
2022/10/05 11:46:26;;;;;;;3.00;2.70;;;;;;;19.12;100.00;100451.47;4992454;28;21032;-57
2022/10/05 11:49:29;;;;;;;3.27;2.70;;;;;;;18.95;100.00;100442.50;4994364;28;20242;-60
2022/10/05 11:52:02;;;;;;;2.23;2.03;;;;;;;18.52;100.00;100444.28;4979606;28;20218;-66
2022/10/05 11:55:04;;;;;;;3.33;2.43;;;;;;;18.48;100.00;100442.88;4995967;28;20297;-66
2022/10/05 11:57:44;;;;;;;5.20;2.40;;;;;;;18.59;100.00;100438.56;4989101;28;20182;-66
2022/10/05 12:00:12;;;;;;;8.40;2.50;;;;;;;18.43;100.00;100436.38;4978218;28;20176;-66
2022/10/05 12:03:16;;;;;;;3.17;2.57;;;;;;;18.25;100.00;100434.34;4990693;28;20188;-66
2022/10/05 12:06:10;;;;;;;3.47;2.53;;;;;;;18.29;100.00;100440.13;4984368;28;20195;-66
2022/10/05 12:09:03;;;;;;;5.03;2.50;;;;;;;18.36;100.00;100442.09;4992414;28;20223;-68
2022/10/05 12:12:06;;;;;;;2.73;2.40;;;;;;;18.57;100.00;100433.47;4993855;28;20249;-65
2022/10/05 12:14:50;;;;;;;4.37;2.53;;;;;;;18.53;100.00;100426.84;4917178;29;20209;-66
2022/10/05 12:17:50;;;;;;;3.93;3.07;;;;;;;18.42;100.00;100430.38;4919461;29;20256;-66
2022/10/05 12:20:47;;;;;;;4.30;3.07;;;;;;;18.42;100.00;100425.16;4889676;29;20196;-67
2022/10/05 12:23:16;;;;;;;3.53;2.50;;;;;;;18.53;100.00;100425.09;4922919;29;20252;-68